createdAt,value
2019-04-25T00:02:30.889Z,9.65
2019-04-25T00:05:03.660Z,9.65
2019-04-25T00:07:35.462Z,9.71
2019-04-25T00:10:07.418Z,9.75
2019-04-25T00:12:39.447Z,9.71
2019-04-25T00:15:11.895Z,9.71
2019-04-25T00:17:44.729Z,9.62
2019-04-25T00:20:17.955Z,9.57
2019-04-25T00:22:54.029Z,9.49
2019-04-25T00:25:27.466Z,9.41
2019-04-25T00:27:59.144Z,9.38
2019-04-25T00:30:32.625Z,9.40
2019-04-25T00:33:04.281Z,9.17
2019-04-25T00:35:36.103Z,9.17
2019-04-25T00:38:07.903Z,8.92
2019-04-25T00:40:39.666Z,8.71
2019-04-25T00:43:11.492Z,8.54
2019-04-25T00:45:44.488Z,8.34
2019-04-25T00:48:16.789Z,8.24
2019-04-25T00:50:48.606Z,8.22
2019-04-25T00:53:21.216Z,8.13
2019-04-25T00:55:53.864Z,8.16
2019-04-25T00:58:33.401Z,8.18
2019-04-25T01:01:23.270Z,8.23
2019-04-25T01:03:55.097Z,8.50
2019-04-25T01:06:26.861Z,8.21
2019-04-25T01:08:58.531Z,7.80
2019-04-25T01:11:31.407Z,7.65
2019-04-25T01:14:03.131Z,7.57
2019-04-25T01:16:36.096Z,7.64
2019-04-25T01:19:07.899Z,7.57
2019-04-25T01:21:39.658Z,7.46
2019-04-25T01:24:12.055Z,7.37
2019-04-25T01:26:43.998Z,7.28
2019-04-25T01:29:16.661Z,7.35
2019-04-25T01:31:48.365Z,7.60
2019-04-25T01:34:21.823Z,7.66
2019-04-25T01:36:55.871Z,7.50
2019-04-25T01:39:45.604Z,7.44
2019-04-25T01:42:18.917Z,7.36
2019-04-25T01:44:53.860Z,7.32
2019-04-25T01:47:26.665Z,7.51
2019-04-25T01:50:00.267Z,7.41
2019-04-25T01:52:33.467Z,7.40
2019-04-25T01:55:07.490Z,7.23
2019-04-25T01:57:39.210Z,7.18
2019-04-25T02:00:14.045Z,7.25
2019-04-25T02:02:47.318Z,7.17
2019-04-25T02:05:19.105Z,7.10
2019-04-25T02:07:51.513Z,7.00
2019-04-25T02:10:23.759Z,6.96
2019-04-25T02:13:13.559Z,6.91
2019-04-25T02:15:47.519Z,6.85
2019-04-25T02:18:20.600Z,6.84
2019-04-25T02:20:54.245Z,6.85
2019-04-25T02:23:25.722Z,6.89
2019-04-25T02:26:09.708Z,6.89
2019-04-25T02:28:30.939Z,6.89
2019-04-25T02:31:08.149Z,6.89
2019-04-25T02:33:36.162Z,6.92
2019-04-25T02:36:09.732Z,6.95
2019-04-25T02:38:44.240Z,6.94
2019-04-25T02:41:15.065Z,6.95
2019-04-25T02:43:47.357Z,6.96
2019-04-25T02:46:20.585Z,6.96
2019-04-25T02:49:28.848Z,7.06
2019-04-25T02:51:59.072Z,7.09
2019-04-25T02:54:29.902Z,7.17
2019-04-25T02:57:02.056Z,7.29
2019-04-25T02:59:34.576Z,7.45
2019-04-25T03:02:09.224Z,7.64
2019-04-25T03:04:41.191Z,7.84
2019-04-25T03:07:16.803Z,8.06
2019-04-25T03:09:46.335Z,8.36
2019-04-25T03:12:29.109Z,8.63
2019-04-25T03:14:51.481Z,8.91
2019-04-25T03:17:24.965Z,9.19
2019-04-25T03:20:11.539Z,9.94
2019-04-25T03:22:44.432Z,9.94
2019-04-25T03:25:21.188Z,10.39
2019-04-25T03:27:54.221Z,10.76
2019-04-25T03:30:25.931Z,11.18
2019-04-25T03:32:57.591Z,11.29
2019-04-25T03:35:29.213Z,11.52
2019-04-25T03:38:02.396Z,11.76
2019-04-25T03:40:34.166Z,12.06
2019-04-25T03:43:07.184Z,12.33
2019-04-25T03:45:39.009Z,12.60
2019-04-25T03:48:11.563Z,12.90
2019-04-25T03:50:44.174Z,13.30
2019-04-25T03:53:15.998Z,13.72
2019-04-25T03:55:49.430Z,14.17
2019-04-25T03:58:23.985Z,14.50
2019-04-25T04:00:56.619Z,14.87
2019-04-25T04:03:29.568Z,15.13
2019-04-25T04:06:01.770Z,15.50
2019-04-25T04:08:35.731Z,15.93
2019-04-25T04:11:08.948Z,16.04
2019-04-25T04:13:43.902Z,16.37
2019-04-25T04:16:17.371Z,16.80
2019-04-25T04:18:50.654Z,17.15
2019-04-25T04:21:43.213Z,17.48
2019-04-25T04:24:16.817Z,17.89
2019-04-25T04:27:12.025Z,18.00
2019-04-25T04:29:44.957Z,18.09
2019-04-25T04:32:17.363Z,18.73
2019-04-25T04:34:53.748Z,18.97
2019-04-25T04:37:25.701Z,19.48
2019-04-25T04:39:57.588Z,20.11
2019-04-25T04:42:29.236Z,20.75
2019-04-25T04:45:01.023Z,21.25
2019-04-25T04:47:34.820Z,21.69
2019-04-25T04:50:08.941Z,21.92
2019-04-25T04:52:43.915Z,22.27
2019-04-25T04:55:17.363Z,22.57
2019-04-25T04:57:50.592Z,23.31
2019-04-25T05:00:25.443Z,23.31
2019-04-25T05:03:11.188Z,24.47
2019-04-25T05:05:55.061Z,23.94
2019-04-25T05:08:31.363Z,23.86
2019-04-25T05:11:04.250Z,24.14
2019-04-25T05:13:36.048Z,24.04
2019-04-25T05:16:07.745Z,24.44
2019-04-25T05:18:40.128Z,24.50
2019-04-25T05:21:13.283Z,24.71
2019-04-25T05:23:51.465Z,25.05
2019-04-25T05:26:24.917Z,25.61
2019-04-25T05:28:59.028Z,25.35
2019-04-25T05:31:32.272Z,25.15
2019-04-25T05:34:04.262Z,25.05
2019-04-25T05:36:39.830Z,24.78
2019-04-25T05:39:11.917Z,24.61
2019-04-25T05:41:54.097Z,24.32
2019-04-25T05:44:27.458Z,24.13
2019-04-25T05:46:59.230Z,23.99
2019-04-25T05:49:34.228Z,23.63
2019-04-25T05:52:06.335Z,23.34
2019-04-25T05:54:37.991Z,22.95
2019-04-25T05:57:11.070Z,22.99
2019-04-25T05:59:44.197Z,22.90
2019-04-25T06:02:15.931Z,22.94
2019-04-25T06:04:47.674Z,22.87
2019-04-25T06:07:19.451Z,22.90
2019-04-25T06:10:09.147Z,23.05
2019-04-25T06:12:49.835Z,22.98
2019-04-25T06:15:24.032Z,22.95
2019-04-25T06:18:14.008Z,23.11
2019-04-25T06:20:48.901Z,23.27
2019-04-25T06:23:25.656Z,23.42
2019-04-25T06:25:57.710Z,23.47
2019-04-25T06:28:31.042Z,23.67
2019-04-25T06:31:04.447Z,24.09
2019-04-25T06:33:37.972Z,24.55
2019-04-25T06:36:09.700Z,25.00
2019-04-25T06:38:41.553Z,25.19
2019-04-25T06:41:13.576Z,25.61
2019-04-25T06:43:47.771Z,25.84
2019-04-25T06:46:24.824Z,26.23
2019-04-25T06:49:13.428Z,26.57
2019-04-25T06:51:50.832Z,26.81
2019-04-25T06:54:25.230Z,26.40
2019-04-25T06:56:57.507Z,26.01
2019-04-25T06:59:30.071Z,25.87
2019-04-25T07:02:04.079Z,25.97
2019-04-25T07:04:35.657Z,25.44
2019-04-25T07:07:12.150Z,25.01
2019-04-25T07:09:43.635Z,25.57
2019-04-25T07:12:15.340Z,26.12
2019-04-25T07:14:47.116Z,26.84
2019-04-25T07:17:18.934Z,27.44
2019-04-25T07:19:50.733Z,27.88
2019-04-25T07:22:23.924Z,28.07
2019-04-25T07:25:16.548Z,28.10
2019-04-25T07:28:03.464Z,28.66
2019-04-25T07:30:48.425Z,28.31
2019-04-25T07:33:15.403Z,27.84
2019-04-25T07:35:47.127Z,28.02
2019-04-25T07:38:18.855Z,28.08
2019-04-25T07:40:51.844Z,28.40
2019-04-25T07:43:23.509Z,28.40
2019-04-25T07:45:56.775Z,28.50
2019-04-25T07:48:30.012Z,27.74
2019-04-25T07:51:03.625Z,27.21
2019-04-25T07:53:38.200Z,27.32
2019-04-25T07:56:10.091Z,27.13
2019-04-25T07:58:49.541Z,27.70
2019-04-25T08:01:16.014Z,28.28
2019-04-25T08:03:47.902Z,28.80
2019-04-25T08:06:22.613Z,29.08
2019-04-25T08:08:55.217Z,28.91
2019-04-25T08:11:28.424Z,29.09
2019-04-25T08:14:03.400Z,28.99
2019-04-25T08:16:37.172Z,29.08
2019-04-25T08:19:08.880Z,29.44
2019-04-25T08:21:41.411Z,28.99
2019-04-25T08:24:13.965Z,28.92
2019-04-25T08:26:46.132Z,29.63
2019-04-25T08:29:18.205Z,29.77
2019-04-25T08:31:49.980Z,30.18
2019-04-25T08:34:21.720Z,30.19
2019-04-25T08:36:55.252Z,29.98
2019-04-25T08:39:30.308Z,28.48
2019-04-25T08:42:03.449Z,28.20
2019-04-25T08:44:36.971Z,28.24
2019-04-25T08:47:09.735Z,28.94
2019-04-25T08:49:45.750Z,28.73
2019-04-25T08:52:18.116Z,28.57
2019-04-25T08:54:57.497Z,28.69
2019-04-25T08:57:46.158Z,28.12
2019-04-25T09:00:29.183Z,27.93
2019-04-25T09:03:05.982Z,27.83
2019-04-25T09:05:45.976Z,27.83
2019-04-25T09:08:19.254Z,28.39
2019-04-25T09:10:50.989Z,28.58
2019-04-25T09:13:23.406Z,28.34
2019-04-25T09:15:56.622Z,28.58
2019-04-25T09:18:28.368Z,29.17
2019-04-25T09:21:00.214Z,29.51
2019-04-25T09:23:33.386Z,29.31
2019-04-25T09:26:05.714Z,29.22
2019-04-25T09:28:38.858Z,29.74
2019-04-25T09:31:13.943Z,29.15
2019-04-25T09:33:46.795Z,28.41
2019-04-25T09:36:18.883Z,27.91
2019-04-25T09:38:53.857Z,27.93
2019-04-25T09:41:28.033Z,28.01
2019-04-25T09:44:04.514Z,28.36
2019-04-25T09:46:37.935Z,28.60
2019-04-25T09:49:14.046Z,28.14
2019-04-25T09:51:53.513Z,27.53
2019-04-25T09:54:33.391Z,27.21
2019-04-25T09:57:25.971Z,26.89
2019-04-25T09:59:57.691Z,27.05
2019-04-25T10:02:33.083Z,27.36
2019-04-25T10:05:06.802Z,27.10
2019-04-25T10:07:38.848Z,26.77
2019-04-25T10:10:10.800Z,26.46
2019-04-25T10:12:44.120Z,26.36
2019-04-25T10:15:35.390Z,26.33
2019-04-25T10:18:07.220Z,26.14
2019-04-25T10:20:41.680Z,26.05
2019-04-25T10:23:17.810Z,26.05
2019-04-25T10:25:51.778Z,25.86
2019-04-25T10:28:23.885Z,26.04
2019-04-25T10:30:56.637Z,26.09
2019-04-25T10:33:28.436Z,26.17
2019-04-25T10:36:01.316Z,26.33
2019-04-25T10:38:37.307Z,26.69
2019-04-25T10:41:12.026Z,26.75
2019-04-25T10:43:44.051Z,26.92
2019-04-25T10:46:16.597Z,27.19
2019-04-25T10:48:48.181Z,27.45
2019-04-25T10:51:24.038Z,27.65
2019-04-25T10:53:56.890Z,27.88
2019-04-25T10:56:28.616Z,27.99
2019-04-25T10:59:00.833Z,28.05
2019-04-25T11:01:33.869Z,28.09
2019-04-25T11:04:09.339Z,28.12
2019-04-25T11:06:41.890Z,28.23
2019-04-25T11:09:18.054Z,28.33
2019-04-25T11:11:50.439Z,28.13
2019-04-25T11:14:24.204Z,28.14
2019-04-25T11:16:56.469Z,28.11
2019-04-25T11:19:28.238Z,28.19
2019-04-25T11:21:59.894Z,28.10
2019-04-25T11:24:31.593Z,27.91
2019-04-25T11:27:04.364Z,28.07
2019-04-25T11:29:37.736Z,27.87
2019-04-25T11:32:09.629Z,27.66
2019-04-25T11:34:46.065Z,27.48
2019-04-25T11:37:17.159Z,27.07
2019-04-25T11:40:05.828Z,27.02
2019-04-25T11:42:37.620Z,27.15
2019-04-25T11:45:11.229Z,27.00
2019-04-25T11:47:47.134Z,27.09
2019-04-25T11:50:19.045Z,26.54
2019-04-25T11:52:51.279Z,26.33
2019-04-25T11:55:23.885Z,26.49
2019-04-25T11:57:55.902Z,26.33
2019-04-25T12:00:28.669Z,25.94
2019-04-25T12:03:00.624Z,25.68
2019-04-25T12:05:34.198Z,25.70
2019-04-25T12:08:07.133Z,25.64
2019-04-25T12:10:40.646Z,25.54
2019-04-25T12:13:15.385Z,25.36
2019-04-25T12:15:47.886Z,25.32
2019-04-25T12:18:19.657Z,25.28
2019-04-25T12:20:54.864Z,25.45
2019-04-25T12:23:29.026Z,25.68
2019-04-25T12:26:03.854Z,25.97
2019-04-25T12:28:35.708Z,26.28
2019-04-25T12:31:07.335Z,26.55
2019-04-25T12:33:39.012Z,26.75
2019-04-25T12:36:10.678Z,26.93
2019-04-25T12:38:46.051Z,26.84
2019-04-25T12:41:20.346Z,26.87
2019-04-25T12:43:54.558Z,26.89
2019-04-25T12:46:28.406Z,26.91
2019-04-25T12:48:59.825Z,26.98
2019-04-25T12:51:31.494Z,27.10
2019-04-25T12:54:03.929Z,27.17
2019-04-25T12:56:37.886Z,27.19
2019-04-25T12:59:11.106Z,27.09
2019-04-25T13:01:43.779Z,27.17
2019-04-25T13:04:15.334Z,27.01
2019-04-25T13:06:48.866Z,26.90
2019-04-25T13:09:22.213Z,26.91
2019-04-25T13:11:53.978Z,26.93
2019-04-25T13:14:25.674Z,26.94
2019-04-25T13:16:57.337Z,26.82
2019-04-25T13:19:29.528Z,26.83
2019-04-25T13:22:01.178Z,26.85
2019-04-25T13:24:34.362Z,26.89
2019-04-25T13:27:10.825Z,26.58
2019-04-25T13:29:50.751Z,26.54
2019-04-25T13:32:24.099Z,26.48
2019-04-25T13:34:58.689Z,26.42
2019-04-25T13:37:34.092Z,26.31
2019-04-25T13:40:10.047Z,26.24
2019-04-25T13:42:46.739Z,26.18
2019-04-25T13:45:19.023Z,26.04
2019-04-25T13:47:50.701Z,26.01
2019-04-25T13:50:24.818Z,25.94
2019-04-25T13:52:57.288Z,25.87
2019-04-25T13:55:30.074Z,25.91
2019-04-25T13:58:01.847Z,25.84
2019-04-25T14:00:34.917Z,25.92
2019-04-25T14:03:07.170Z,25.65
2019-04-25T14:05:39.066Z,25.59
2019-04-25T14:08:11.255Z,25.45
2019-04-25T14:10:44.337Z,25.40
2019-04-25T14:13:17.373Z,25.34
2019-04-25T14:15:58.330Z,25.30
2019-04-25T14:18:36.761Z,25.15
2019-04-25T14:21:20.652Z,25.04
2019-04-25T14:23:54.106Z,24.97
2019-04-25T14:26:29.118Z,24.85
2019-04-25T14:29:02.176Z,24.73
2019-04-25T14:31:45.591Z,24.68
2019-04-25T14:34:09.015Z,24.61
2019-04-25T14:36:40.876Z,24.56
2019-04-25T14:39:13.423Z,24.50
2019-04-25T14:41:45.070Z,24.45
2019-04-25T14:44:17.259Z,24.34
2019-04-25T14:46:49.754Z,24.30
2019-04-25T14:49:22.823Z,24.26
2019-04-25T14:51:55.162Z,24.18
2019-04-25T14:54:44.450Z,24.09
2019-04-25T14:57:21.855Z,24.05
2019-04-25T14:59:55.247Z,23.91
2019-04-25T15:02:30.130Z,23.86
2019-04-25T15:05:02.625Z,23.77
2019-04-25T15:07:34.156Z,23.67
2019-04-25T15:10:17.930Z,23.59
2019-04-25T15:12:50.020Z,23.50
2019-04-25T15:15:24.455Z,23.39
2019-04-25T15:17:56.526Z,23.29
2019-04-25T15:20:28.315Z,23.18
2019-04-25T15:23:02.270Z,23.05
2019-04-25T15:25:37.049Z,22.93
2019-04-25T15:28:11.584Z,22.83
2019-04-25T15:30:43.965Z,22.74
2019-04-25T15:33:18.918Z,22.64
2019-04-25T15:36:02.270Z,22.54
2019-04-25T15:38:38.121Z,22.40
2019-04-25T15:41:20.415Z,22.26
2019-04-25T15:44:09.792Z,22.12
2019-04-25T15:46:44.358Z,21.97
2019-04-25T15:49:16.101Z,21.78
2019-04-25T15:51:51.776Z,21.61
2019-04-25T15:54:25.311Z,21.46
2019-04-25T15:56:58.726Z,21.30
2019-04-25T15:59:31.096Z,21.18
2019-04-25T16:02:08.413Z,21.06
2019-04-25T16:04:40.844Z,20.95
2019-04-25T16:07:13.116Z,20.78
2019-04-25T16:09:44.804Z,20.61
2019-04-25T16:12:18.333Z,20.47
2019-04-25T16:14:51.432Z,20.38
2019-04-25T16:17:25.193Z,20.27
2019-04-25T16:19:57.926Z,20.20
2019-04-25T16:22:30.274Z,20.12
2019-04-25T16:25:03.794Z,20.05
2019-04-25T16:27:39.057Z,19.97
2019-04-25T16:30:13.101Z,19.83
2019-04-25T16:32:44.941Z,19.75
2019-04-25T16:35:21.432Z,19.64
2019-04-25T16:37:55.077Z,19.57
2019-04-25T16:40:27.553Z,19.51
2019-04-25T16:43:04.649Z,19.58
2019-04-25T16:45:40.170Z,19.58
2019-04-25T16:48:13.122Z,19.53
2019-04-25T16:50:46.483Z,19.50
2019-04-25T16:53:21.063Z,19.53
2019-04-25T16:55:54.079Z,19.36
2019-04-25T16:58:27.229Z,19.08
2019-04-25T17:01:01.878Z,18.88
2019-04-25T17:03:35.339Z,18.73
2019-04-25T17:06:13.296Z,18.58
2019-04-25T17:08:46.955Z,18.43
2019-04-25T17:11:22.705Z,18.27
2019-04-25T17:13:56.194Z,18.12
2019-04-25T17:16:37.461Z,17.98
2019-04-25T17:19:12.277Z,17.86
2019-04-25T17:21:45.094Z,17.72
2019-04-25T17:24:16.842Z,17.54
2019-04-25T17:26:52.796Z,17.43
2019-04-25T17:29:24.609Z,17.38
2019-04-25T17:32:15.928Z,17.33
2019-04-25T17:34:49.796Z,17.29
2019-04-25T17:37:29.027Z,17.22
2019-04-25T17:40:02.460Z,17.15
2019-04-25T17:42:37.193Z,17.12
2019-04-25T17:45:13.196Z,17.00
2019-04-25T17:48:03.574Z,16.86
2019-04-25T17:50:39.709Z,16.76
2019-04-25T17:53:13.129Z,16.70
2019-04-25T17:55:48.468Z,16.69
2019-04-25T17:58:21.810Z,16.64
2019-04-25T18:00:55.442Z,16.56
2019-04-25T18:03:28.751Z,16.49
2019-04-25T18:06:02.788Z,16.44
2019-04-25T18:08:37.496Z,16.41
2019-04-25T18:11:13.692Z,16.35
2019-04-25T18:13:51.898Z,16.27
2019-04-25T18:16:34.651Z,16.20
2019-04-25T18:19:11.020Z,16.13
2019-04-25T18:21:45.006Z,16.11
2019-04-25T18:24:36.926Z,16.01
2019-04-25T18:27:17.263Z,15.96
2019-04-25T18:29:53.393Z,15.88
2019-04-25T18:32:27.494Z,15.87
2019-04-25T18:35:08.458Z,15.94
2019-04-25T18:37:55.575Z,16.00
2019-04-25T18:40:48.949Z,16.01
2019-04-25T18:43:25.333Z,15.97
2019-04-25T18:46:03.490Z,15.88
2019-04-25T18:48:36.889Z,15.81
2019-04-25T18:51:10.710Z,15.72
2019-04-25T18:54:01.485Z,15.64
2019-04-25T18:56:37.619Z,15.57
2019-04-25T18:59:24.946Z,15.59
2019-04-25T19:02:02.653Z,15.49
2019-04-25T19:04:39.569Z,15.43
2019-04-25T19:07:22.616Z,15.36
2019-04-25T19:09:58.766Z,15.33
2019-04-25T19:15:31.685Z,15.15
2019-04-25T19:18:10.039Z,15.08
2019-04-25T19:20:46.297Z,15.00
2019-04-25T19:23:20.689Z,14.94
2019-04-25T19:25:58.754Z,14.86
2019-04-25T19:28:35.994Z,14.76
2019-04-25T19:31:11.084Z,14.67
2019-04-25T19:33:46.023Z,14.61
2019-04-25T19:36:19.298Z,14.55
2019-04-25T19:38:52.487Z,14.51
2019-04-25T19:41:28.998Z,14.50
2019-04-25T19:44:09.047Z,14.49
2019-04-25T19:46:47.193Z,14.47
2019-04-25T19:49:18.951Z,14.43
2019-04-25T19:51:51.941Z,14.33
2019-04-25T19:54:23.669Z,14.24
2019-04-25T19:56:57.968Z,14.16
2019-04-25T19:59:30.547Z,14.09
2019-04-25T20:02:08.153Z,14.05
2019-04-25T20:04:44.732Z,13.99
2019-04-25T20:07:28.291Z,13.97
2019-04-25T20:10:05.914Z,13.88
2019-04-25T20:12:45.393Z,13.78
2019-04-25T20:15:24.749Z,13.74
2019-04-25T20:18:01.568Z,13.68
2019-04-25T20:20:38.409Z,13.67
2019-04-25T20:23:28.538Z,13.64
2019-04-25T20:26:04.888Z,13.64
2019-04-25T20:28:38.559Z,13.58
2019-04-25T20:31:10.790Z,13.58
2019-04-25T20:33:45.590Z,13.58
2019-04-25T20:36:20.918Z,13.52
2019-04-25T20:38:56.466Z,13.47
2019-04-25T20:41:29.983Z,13.43
2019-04-25T20:44:02.696Z,13.44
2019-04-25T20:46:35.708Z,13.34
2019-04-25T20:49:09.043Z,13.29
2019-04-25T20:51:42.421Z,13.27
2019-04-25T20:54:16.203Z,13.25
2019-04-25T20:56:49.126Z,13.18
2019-04-25T20:59:21.492Z,13.16
2019-04-25T21:01:53.580Z,13.11
2019-04-25T21:04:39.932Z,13.05
2019-04-25T21:07:11.756Z,12.96
2019-04-25T21:09:44.339Z,12.89
2019-04-25T21:12:17.075Z,12.79
2019-04-25T21:14:52.730Z,12.67
2019-04-25T21:17:36.900Z,12.60
2019-04-25T21:20:13.579Z,12.52
2019-04-25T21:22:46.306Z,12.46
2019-04-25T21:25:19.723Z,12.46
2019-04-25T21:27:52.528Z,12.47
2019-04-25T21:30:24.540Z,12.43
2019-04-25T21:32:58.364Z,12.35
2019-04-25T21:35:30.749Z,12.26
2019-04-25T21:38:02.536Z,12.14
2019-04-25T21:40:36.026Z,12.17
2019-04-25T21:43:12.254Z,12.21
2019-04-25T21:45:47.511Z,12.21
2019-04-25T21:48:22.103Z,12.22
2019-04-25T21:50:56.986Z,12.24
2019-04-25T21:53:29.121Z,12.19
2019-04-25T21:56:01.903Z,12.11
2019-04-25T21:58:33.820Z,12.03
2019-04-25T22:01:08.304Z,11.96
2019-04-25T22:03:41.582Z,11.92
2019-04-25T22:06:13.546Z,11.88
2019-04-25T22:08:45.281Z,11.85
2019-04-25T22:11:18.503Z,11.84
2019-04-25T22:13:50.592Z,11.86
2019-04-25T22:16:23.771Z,11.91
2019-04-25T22:18:57.589Z,11.96
2019-04-25T22:21:37.840Z,11.99
2019-04-25T22:24:11.174Z,12.01
2019-04-25T22:26:40.774Z,12.02
2019-04-25T22:29:12.824Z,12.03
2019-04-25T22:31:47.217Z,12.03
2019-04-25T22:34:35.885Z,11.97
2019-04-25T22:37:08.321Z,11.91
2019-04-25T22:39:41.885Z,11.86
2019-04-25T22:42:15.177Z,11.76
2019-04-25T22:44:47.938Z,11.69
2019-04-25T22:47:19.693Z,11.64
2019-04-25T22:49:52.403Z,11.60
2019-04-25T22:52:24.593Z,11.66
2019-04-25T22:54:56.427Z,11.67
2019-04-25T22:57:28.274Z,11.54
2019-04-25T23:00:01.590Z,11.70
2019-04-25T23:02:39.412Z,11.48
2019-04-25T23:05:16.176Z,11.11
2019-04-25T23:07:50.866Z,10.87
2019-04-25T23:10:24.901Z,10.75
2019-04-25T23:12:56.778Z,10.62
2019-04-25T23:15:28.526Z,10.63
2019-04-25T23:18:00.550Z,10.67
2019-04-25T23:20:32.257Z,10.73
2019-04-25T23:23:04.767Z,10.71
2019-04-25T23:25:55.522Z,10.68
2019-04-25T23:28:31.315Z,10.68
2019-04-25T23:31:05.373Z,10.73
2019-04-25T23:33:38.067Z,10.96
2019-04-25T23:36:11.090Z,10.97
2019-04-25T23:38:43.012Z,10.89
2019-04-25T23:41:15.693Z,10.74
2019-04-25T23:43:48.765Z,10.64
2019-04-25T23:46:20.546Z,10.52
2019-04-25T23:48:52.198Z,10.41
2019-04-25T23:51:23.922Z,10.46
2019-04-25T23:53:55.967Z,10.51
2019-04-25T23:56:27.713Z,10.52
2019-04-25T23:58:59.652Z,10.52
